sensor_id;sensor_type;location;lat;lon;timestamp;temperature;humidity
18266;DHT22;9259;48.194;16.322;2023-12-14T00:01:56;7.80;99.90
18266;DHT22;9259;48.194;16.322;2023-12-14T00:04:24;7.80;99.90
18266;DHT22;9259;48.194;16.322;2023-12-14T00:06:53;7.90;99.90
18266;DHT22;9259;48.194;16.322;2023-12-14T00:09:21;8.20;99.90
18266;DHT22;9259;48.194;16.322;2023-12-14T00:11:48;8.30;99.90
18266;DHT22;9259;48.194;16.322;2023-12-14T00:14:16;8.20;99.90
18266;DHT22;9259;48.194;16.322;2023-12-14T00:16:44;8.20;99.90
18266;DHT22;9259;48.194;16.322;2023-12-14T00:19:12;8.10;99.90
18266;DHT22;9259;48.194;16.322;2023-12-14T00:21:40;8.10;99.90
18266;DHT22;9259;48.194;16.322;2023-12-14T00:24:09;8.00;99.90
18266;DHT22;9259;48.194;16.322;2023-12-14T00:26:37;8.00;99.90
18266;DHT22;9259;48.194;16.322;2023-12-14T00:29:05;7.90;99.90
18266;DHT22;9259;48.194;16.322;2023-12-14T00:31:33;7.90;99.90
18266;DHT22;9259;48.194;16.322;2023-12-14T00:34:00;7.90;99.90
18266;DHT22;9259;48.194;16.322;2023-12-14T00:36:29;7.90;99.90
18266;DHT22;9259;48.194;16.322;2023-12-14T00:38:57;7.90;99.90
18266;DHT22;9259;48.194;16.322;2023-12-14T00:41:26;7.90;99.90
18266;DHT22;9259;48.194;16.322;2023-12-14T00:43:54;7.90;99.90
18266;DHT22;9259;48.194;16.322;2023-12-14T00:46:22;7.80;99.90
18266;DHT22;9259;48.194;16.322;2023-12-14T00:48:49;7.90;99.90
18266;DHT22;9259;48.194;16.322;2023-12-14T00:51:17;7.80;99.90
18266;DHT22;9259;48.194;16.322;2023-12-14T00:53:45;7.80;99.90
18266;DHT22;9259;48.194;16.322;2023-12-14T00:56:13;7.70;99.90
18266;DHT22;9259;48.194;16.322;2023-12-14T00:58:42;7.70;99.90
18266;DHT22;9259;48.194;16.322;2023-12-14T01:01:10;7.70;99.90
18266;DHT22;9259;48.194;16.322;2023-12-14T01:03:38;7.60;99.90
18266;DHT22;9259;48.194;16.322;2023-12-14T01:06:06;7.70;99.90
18266;DHT22;9259;48.194;16.322;2023-12-14T01:08:34;7.70;99.90
18266;DHT22;9259;48.194;16.322;2023-12-14T01:11:02;7.70;99.90
18266;DHT22;9259;48.194;16.322;2023-12-14T01:13:30;7.70;99.90
18266;DHT22;9259;48.194;16.322;2023-12-14T01:15:59;7.60;99.90
18266;DHT22;9259;48.194;16.322;2023-12-14T01:18:27;7.60;99.90
18266;DHT22;9259;48.194;16.322;2023-12-14T01:20:55;7.50;99.90
18266;DHT22;9259;48.194;16.322;2023-12-14T01:23:22;7.40;99.90
18266;DHT22;9259;48.194;16.322;2023-12-14T01:25:50;7.30;99.90
18266;DHT22;9259;48.194;16.322;2023-12-14T01:28:18;7.30;99.90
18266;DHT22;9259;48.194;16.322;2023-12-14T01:30:46;7.20;99.90
18266;DHT22;9259;48.194;16.322;2023-12-14T01:33:15;7.00;99.90
18266;DHT22;9259;48.194;16.322;2023-12-14T01:35:43;6.90;99.90
18266;DHT22;9259;48.194;16.322;2023-12-14T01:38:11;6.90;99.90
18266;DHT22;9259;48.194;16.322;2023-12-14T01:40:39;6.80;99.90
18266;DHT22;9259;48.194;16.322;2023-12-14T01:43:07;6.80;99.90
18266;DHT22;9259;48.194;16.322;2023-12-14T01:45:36;6.70;99.90
18266;DHT22;9259;48.194;16.322;2023-12-14T01:48:04;6.80;99.90
18266;DHT22;9259;48.194;16.322;2023-12-14T01:50:34;6.70;99.90
18266;DHT22;9259;48.194;16.322;2023-12-14T01:53:01;6.70;99.90
18266;DHT22;9259;48.194;16.322;2023-12-14T01:55:29;6.70;99.90
18266;DHT22;9259;48.194;16.322;2023-12-14T01:57:57;6.70;99.90
18266;DHT22;9259;48.194;16.322;2023-12-14T02:00:30;6.60;99.90
18266;DHT22;9259;48.194;16.322;2023-12-14T02:03:03;6.70;99.90
18266;DHT22;9259;48.194;16.322;2023-12-14T02:05:32;6.70;99.90
18266;DHT22;9259;48.194;16.322;2023-12-14T02:08:01;6.70;99.90
18266;DHT22;9259;48.194;16.322;2023-12-14T02:10:29;6.70;99.90
18266;DHT22;9259;48.194;16.322;2023-12-14T02:12:57;6.70;99.90
18266;DHT22;9259;48.194;16.322;2023-12-14T02:15:25;6.70;99.90
18266;DHT22;9259;48.194;16.322;2023-12-14T02:17:52;6.80;99.90
18266;DHT22;9259;48.194;16.322;2023-12-14T02:20:20;6.80;99.90
18266;DHT22;9259;48.194;16.322;2023-12-14T02:22:50;6.80;99.90
18266;DHT22;9259;48.194;16.322;2023-12-14T02:25:19;6.70;99.90
18266;DHT22;9259;48.194;16.322;2023-12-14T02:27:47;6.70;99.90
18266;DHT22;9259;48.194;16.322;2023-12-14T02:30:15;6.70;99.90
18266;DHT22;9259;48.194;16.322;2023-12-14T02:32:43;6.80;99.90
18266;DHT22;9259;48.194;16.322;2023-12-14T02:35:11;6.70;99.90
18266;DHT22;9259;48.194;16.322;2023-12-14T02:37:39;6.70;99.90
18266;DHT22;9259;48.194;16.322;2023-12-14T02:40:10;6.70;99.90
18266;DHT22;9259;48.194;16.322;2023-12-14T02:42:38;6.80;99.90
18266;DHT22;9259;48.194;16.322;2023-12-14T02:45:07;6.80;99.90
18266;DHT22;9259;48.194;16.322;2023-12-14T02:47:36;6.80;99.90
18266;DHT22;9259;48.194;16.322;2023-12-14T02:50:04;6.80;99.90
18266;DHT22;9259;48.194;16.322;2023-12-14T02:52:33;6.80;99.90
18266;DHT22;9259;48.194;16.322;2023-12-14T02:55:01;6.90;99.90
18266;DHT22;9259;48.194;16.322;2023-12-14T02:57:30;6.90;99.90
18266;DHT22;9259;48.194;16.322;2023-12-14T02:59:58;6.90;99.90
18266;DHT22;9259;48.194;16.322;2023-12-14T03:02:26;7.00;99.90
18266;DHT22;9259;48.194;16.322;2023-12-14T03:04:53;7.10;99.90
18266;DHT22;9259;48.194;16.322;2023-12-14T03:07:21;7.20;99.90
18266;DHT22;9259;48.194;16.322;2023-12-14T03:09:49;7.20;99.90
18266;DHT22;9259;48.194;16.322;2023-12-14T03:12:17;7.20;99.90
18266;DHT22;9259;48.194;16.322;2023-12-14T03:14:46;7.30;99.90
18266;DHT22;9259;48.194;16.322;2023-12-14T03:17:14;7.30;99.90
18266;DHT22;9259;48.194;16.322;2023-12-14T03:19:43;7.30;99.90
18266;DHT22;9259;48.194;16.322;2023-12-14T03:22:10;7.40;99.90
18266;DHT22;9259;48.194;16.322;2023-12-14T03:24:39;7.40;99.90
18266;DHT22;9259;48.194;16.322;2023-12-14T03:27:07;7.40;99.90
18266;DHT22;9259;48.194;16.322;2023-12-14T03:29:35;7.40;99.90
18266;DHT22;9259;48.194;16.322;2023-12-14T03:32:04;7.50;99.90
18266;DHT22;9259;48.194;16.322;2023-12-14T03:34:33;7.50;99.90
18266;DHT22;9259;48.194;16.322;2023-12-14T03:37:00;7.50;99.90
18266;DHT22;9259;48.194;16.322;2023-12-14T03:39:28;7.40;99.90
18266;DHT22;9259;48.194;16.322;2023-12-14T03:41:56;7.50;99.90
18266;DHT22;9259;48.194;16.322;2023-12-14T03:44:24;7.50;99.90
18266;DHT22;9259;48.194;16.322;2023-12-14T03:46:52;7.40;99.90
18266;DHT22;9259;48.194;16.322;2023-12-14T03:49:22;7.50;99.90
18266;DHT22;9259;48.194;16.322;2023-12-14T03:51:49;7.50;99.90
18266;DHT22;9259;48.194;16.322;2023-12-14T03:54:17;7.50;99.90
18266;DHT22;9259;48.194;16.322;2023-12-14T03:56:45;7.50;99.90
18266;DHT22;9259;48.194;16.322;2023-12-14T03:59:13;7.50;99.90
18266;DHT22;9259;48.194;16.322;2023-12-14T04:01:41;7.50;99.90
18266;DHT22;9259;48.194;16.322;2023-12-14T04:04:09;7.50;99.90
18266;DHT22;9259;48.194;16.322;2023-12-14T04:06:38;7.50;99.90
18266;DHT22;9259;48.194;16.322;2023-12-14T04:09:06;7.50;99.90
18266;DHT22;9259;48.194;16.322;2023-12-14T04:11:34;7.50;99.90
18266;DHT22;9259;48.194;16.322;2023-12-14T04:14:01;7.50;99.90
18266;DHT22;9259;48.194;16.322;2023-12-14T04:16:29;7.50;99.90
18266;DHT22;9259;48.194;16.322;2023-12-14T04:18:57;7.50;99.90
18266;DHT22;9259;48.194;16.322;2023-12-14T04:21:25;7.50;99.90
18266;DHT22;9259;48.194;16.322;2023-12-14T04:23:54;7.60;99.90
18266;DHT22;9259;48.194;16.322;2023-12-14T04:26:22;7.50;99.90
18266;DHT22;9259;48.194;16.322;2023-12-14T04:28:50;7.50;99.90
18266;DHT22;9259;48.194;16.322;2023-12-14T04:31:17;7.50;99.90
18266;DHT22;9259;48.194;16.322;2023-12-14T04:33:45;7.50;99.90
18266;DHT22;9259;48.194;16.322;2023-12-14T04:36:13;7.50;99.90
18266;DHT22;9259;48.194;16.322;2023-12-14T04:38:41;7.50;99.90
18266;DHT22;9259;48.194;16.322;2023-12-14T04:41:10;7.50;99.90
18266;DHT22;9259;48.194;16.322;2023-12-14T04:43:38;7.50;99.90
18266;DHT22;9259;48.194;16.322;2023-12-14T04:46:06;7.50;99.90
18266;DHT22;9259;48.194;16.322;2023-12-14T04:48:33;7.50;99.90
18266;DHT22;9259;48.194;16.322;2023-12-14T04:51:01;7.50;99.90
18266;DHT22;9259;48.194;16.322;2023-12-14T04:53:29;7.50;99.90
18266;DHT22;9259;48.194;16.322;2023-12-14T04:55:57;7.50;99.90
18266;DHT22;9259;48.194;16.322;2023-12-14T04:58:26;7.40;99.90
18266;DHT22;9259;48.194;16.322;2023-12-14T05:00:54;7.50;99.90
18266;DHT22;9259;48.194;16.322;2023-12-14T05:03:22;7.40;99.90
18266;DHT22;9259;48.194;16.322;2023-12-14T05:05:49;7.50;99.90
18266;DHT22;9259;48.194;16.322;2023-12-14T05:08:17;7.50;99.90
18266;DHT22;9259;48.194;16.322;2023-12-14T05:10:45;7.50;99.90
18266;DHT22;9259;48.194;16.322;2023-12-14T05:13:13;7.50;99.90
18266;DHT22;9259;48.194;16.322;2023-12-14T05:15:42;7.50;99.90
18266;DHT22;9259;48.194;16.322;2023-12-14T05:18:10;7.50;99.90
18266;DHT22;9259;48.194;16.322;2023-12-14T05:20:38;7.50;99.90
18266;DHT22;9259;48.194;16.322;2023-12-14T05:23:05;7.40;99.90
18266;DHT22;9259;48.194;16.322;2023-12-14T05:25:33;7.40;99.90
18266;DHT22;9259;48.194;16.322;2023-12-14T05:28:01;7.40;99.90
18266;DHT22;9259;48.194;16.322;2023-12-14T05:30:29;7.30;99.90
18266;DHT22;9259;48.194;16.322;2023-12-14T05:32:58;7.30;99.90
18266;DHT22;9259;48.194;16.322;2023-12-14T05:35:26;7.30;99.90
18266;DHT22;9259;48.194;16.322;2023-12-14T05:37:54;7.40;99.90
18266;DHT22;9259;48.194;16.322;2023-12-14T05:40:22;7.30;99.90
18266;DHT22;9259;48.194;16.322;2023-12-14T05:42:49;7.30;99.90
18266;DHT22;9259;48.194;16.322;2023-12-14T05:45:17;7.30;99.90
18266;DHT22;9259;48.194;16.322;2023-12-14T05:47:46;7.30;99.90
18266;DHT22;9259;48.194;16.322;2023-12-14T05:50:15;7.30;99.90
18266;DHT22;9259;48.194;16.322;2023-12-14T05:52:43;7.30;99.90
18266;DHT22;9259;48.194;16.322;2023-12-14T05:55:12;7.30;99.90
18266;DHT22;9259;48.194;16.322;2023-12-14T05:57:40;7.30;99.90
18266;DHT22;9259;48.194;16.322;2023-12-14T06:00:08;7.20;99.90
18266;DHT22;9259;48.194;16.322;2023-12-14T06:02:36;7.20;99.90
18266;DHT22;9259;48.194;16.322;2023-12-14T06:05:05;7.20;99.90
18266;DHT22;9259;48.194;16.322;2023-12-14T06:07:35;7.20;99.90
18266;DHT22;9259;48.194;16.322;2023-12-14T06:10:04;7.20;99.90
18266;DHT22;9259;48.194;16.322;2023-12-14T06:12:33;7.20;99.90
18266;DHT22;9259;48.194;16.322;2023-12-14T06:15:01;7.20;99.90
18266;DHT22;9259;48.194;16.322;2023-12-14T06:17:29;7.20;99.90
18266;DHT22;9259;48.194;16.322;2023-12-14T06:19:58;7.20;99.90
18266;DHT22;9259;48.194;16.322;2023-12-14T06:22:26;7.10;99.90
18266;DHT22;9259;48.194;16.322;2023-12-14T06:24:55;7.10;99.90
18266;DHT22;9259;48.194;16.322;2023-12-14T06:27:23;7.10;99.90
18266;DHT22;9259;48.194;16.322;2023-12-14T06:29:52;7.10;99.90
18266;DHT22;9259;48.194;16.322;2023-12-14T06:32:20;7.10;99.90
18266;DHT22;9259;48.194;16.322;2023-12-14T06:34:48;7.10;99.90
18266;DHT22;9259;48.194;16.322;2023-12-14T06:37:16;7.10;99.90
18266;DHT22;9259;48.194;16.322;2023-12-14T06:39:44;7.00;99.90
18266;DHT22;9259;48.194;16.322;2023-12-14T06:42:14;7.10;99.90
18266;DHT22;9259;48.194;16.322;2023-12-14T06:44:41;7.10;99.90
18266;DHT22;9259;48.194;16.322;2023-12-14T06:47:09;7.00;99.90
18266;DHT22;9259;48.194;16.322;2023-12-14T06:49:37;7.00;99.90
18266;DHT22;9259;48.194;16.322;2023-12-14T06:52:05;7.00;99.90
18266;DHT22;9259;48.194;16.322;2023-12-14T06:54:33;7.00;99.90
18266;DHT22;9259;48.194;16.322;2023-12-14T06:57:01;7.00;99.90
18266;DHT22;9259;48.194;16.322;2023-12-14T06:59:30;7.00;99.90
18266;DHT22;9259;48.194;16.322;2023-12-14T07:01:58;7.00;99.90
18266;DHT22;9259;48.194;16.322;2023-12-14T07:04:25;7.00;99.90
18266;DHT22;9259;48.194;16.322;2023-12-14T07:06:53;7.00;99.90
18266;DHT22;9259;48.194;16.322;2023-12-14T07:09:21;6.90;99.90
18266;DHT22;9259;48.194;16.322;2023-12-14T07:11:49;6.90;99.90
18266;DHT22;9259;48.194;16.322;2023-12-14T07:14:17;6.90;99.90
18266;DHT22;9259;48.194;16.322;2023-12-14T07:16:47;6.90;99.90
18266;DHT22;9259;48.194;16.322;2023-12-14T07:19:14;6.90;99.90
18266;DHT22;9259;48.194;16.322;2023-12-14T07:21:42;6.90;99.90
18266;DHT22;9259;48.194;16.322;2023-12-14T07:24:10;6.90;99.90
18266;DHT22;9259;48.194;16.322;2023-12-14T07:26:38;6.80;99.90
18266;DHT22;9259;48.194;16.322;2023-12-14T07:29:05;6.90;99.90
18266;DHT22;9259;48.194;16.322;2023-12-14T07:31:33;6.80;99.90
18266;DHT22;9259;48.194;16.322;2023-12-14T07:34:03;6.80;99.90
18266;DHT22;9259;48.194;16.322;2023-12-14T07:36:30;6.80;99.90
18266;DHT22;9259;48.194;16.322;2023-12-14T07:38:58;6.90;99.90
18266;DHT22;9259;48.194;16.322;2023-12-14T07:41:27;6.80;99.90
18266;DHT22;9259;48.194;16.322;2023-12-14T07:43:56;6.80;99.90
18266;DHT22;9259;48.194;16.322;2023-12-14T07:46:24;6.80;99.90
18266;DHT22;9259;48.194;16.322;2023-12-14T07:48:52;6.90;99.90
18266;DHT22;9259;48.194;16.322;2023-12-14T07:51:21;6.90;99.90
18266;DHT22;9259;48.194;16.322;2023-12-14T07:53:49;6.90;99.90
18266;DHT22;9259;48.194;16.322;2023-12-14T07:56:17;6.90;99.90
18266;DHT22;9259;48.194;16.322;2023-12-14T07:58:45;6.90;99.90
18266;DHT22;9259;48.194;16.322;2023-12-14T08:01:12;6.90;99.90
18266;DHT22;9259;48.194;16.322;2023-12-14T08:03:40;6.90;99.90
18266;DHT22;9259;48.194;16.322;2023-12-14T08:06:08;6.90;99.90
18266;DHT22;9259;48.194;16.322;2023-12-14T08:08:37;6.90;99.90
18266;DHT22;9259;48.194;16.322;2023-12-14T08:11:05;7.00;99.90
18266;DHT22;9259;48.194;16.322;2023-12-14T08:13:34;7.00;99.90
18266;DHT22;9259;48.194;16.322;2023-12-14T08:16:01;7.00;99.90
18266;DHT22;9259;48.194;16.322;2023-12-14T08:18:29;7.00;99.90
18266;DHT22;9259;48.194;16.322;2023-12-14T08:20:57;7.00;99.90
18266;DHT22;9259;48.194;16.322;2023-12-14T08:23:25;7.00;99.90
18266;DHT22;9259;48.194;16.322;2023-12-14T08:25:55;7.00;99.90
18266;DHT22;9259;48.194;16.322;2023-12-14T08:28:23;7.10;99.90
18266;DHT22;9259;48.194;16.322;2023-12-14T08:30:51;7.10;99.90
18266;DHT22;9259;48.194;16.322;2023-12-14T08:33:19;7.10;99.90
18266;DHT22;9259;48.194;16.322;2023-12-14T08:35:47;7.10;99.90
18266;DHT22;9259;48.194;16.322;2023-12-14T08:38:15;7.10;99.90
18266;DHT22;9259;48.194;16.322;2023-12-14T08:40:43;7.10;99.90
18266;DHT22;9259;48.194;16.322;2023-12-14T08:43:12;7.20;99.90
18266;DHT22;9259;48.194;16.322;2023-12-14T08:45:40;7.20;99.90
18266;DHT22;9259;48.194;16.322;2023-12-14T08:48:08;7.20;99.90
18266;DHT22;9259;48.194;16.322;2023-12-14T08:50:36;7.20;99.90
18266;DHT22;9259;48.194;16.322;2023-12-14T08:53:04;7.20;99.90
18266;DHT22;9259;48.194;16.322;2023-12-14T08:55:32;7.30;99.90
18266;DHT22;9259;48.194;16.322;2023-12-14T08:58:00;7.30;99.90
18266;DHT22;9259;48.194;16.322;2023-12-14T09:00:29;7.30;99.90
18266;DHT22;9259;48.194;16.322;2023-12-14T09:02:57;7.40;99.90
18266;DHT22;9259;48.194;16.322;2023-12-14T09:05:25;7.40;99.90
18266;DHT22;9259;48.194;16.322;2023-12-14T09:07:53;7.40;99.90
18266;DHT22;9259;48.194;16.322;2023-12-14T09:10:22;7.40;99.90
18266;DHT22;9259;48.194;16.322;2023-12-14T09:12:50;7.50;99.90
18266;DHT22;9259;48.194;16.322;2023-12-14T09:15:18;7.50;99.90
18266;DHT22;9259;48.194;16.322;2023-12-14T09:17:47;7.60;99.90
18266;DHT22;9259;48.194;16.322;2023-12-14T09:20:15;7.60;99.90
18266;DHT22;9259;48.194;16.322;2023-12-14T09:22:43;7.60;99.90
18266;DHT22;9259;48.194;16.322;2023-12-14T09:25:11;7.60;99.90
18266;DHT22;9259;48.194;16.322;2023-12-14T09:27:38;7.60;99.90
18266;DHT22;9259;48.194;16.322;2023-12-14T09:30:07;7.60;99.90
18266;DHT22;9259;48.194;16.322;2023-12-14T09:32:36;7.60;99.90
18266;DHT22;9259;48.194;16.322;2023-12-14T09:35:08;7.70;99.90
18266;DHT22;9259;48.194;16.322;2023-12-14T09:37:35;7.60;99.90
18266;DHT22;9259;48.194;16.322;2023-12-14T09:40:04;7.70;99.90
18266;DHT22;9259;48.194;16.322;2023-12-14T09:42:37;7.70;99.90
18266;DHT22;9259;48.194;16.322;2023-12-14T09:45:07;7.80;99.90
18266;DHT22;9259;48.194;16.322;2023-12-14T09:47:36;7.80;99.90
18266;DHT22;9259;48.194;16.322;2023-12-14T09:50:07;7.80;99.90
18266;DHT22;9259;48.194;16.322;2023-12-14T09:52:36;7.80;99.90
18266;DHT22;9259;48.194;16.322;2023-12-14T09:55:04;7.90;99.90
18266;DHT22;9259;48.194;16.322;2023-12-14T09:57:32;8.10;99.90
18266;DHT22;9259;48.194;16.322;2023-12-14T10:00:00;8.30;99.90
18266;DHT22;9259;48.194;16.322;2023-12-14T10:02:31;8.50;99.90
18266;DHT22;9259;48.194;16.322;2023-12-14T10:04:58;8.60;99.90
18266;DHT22;9259;48.194;16.322;2023-12-14T10:07:28;8.80;99.90
18266;DHT22;9259;48.194;16.322;2023-12-14T10:10:09;9.10;99.90
18266;DHT22;9259;48.194;16.322;2023-12-14T10:12:51;9.40;99.90
18266;DHT22;9259;48.194;16.322;2023-12-14T10:15:20;9.60;99.90
18266;DHT22;9259;48.194;16.322;2023-12-14T10:17:51;9.70;99.90
18266;DHT22;9259;48.194;16.322;2023-12-14T10:20:20;10.40;99.90
18266;DHT22;9259;48.194;16.322;2023-12-14T10:22:50;10.80;99.90
18266;DHT22;9259;48.194;16.322;2023-12-14T10:25:18;10.60;99.90
18266;DHT22;9259;48.194;16.322;2023-12-14T10:27:47;10.50;99.90
18266;DHT22;9259;48.194;16.322;2023-12-14T10:30:15;10.70;99.90
18266;DHT22;9259;48.194;16.322;2023-12-14T10:32:43;10.40;99.90
18266;DHT22;9259;48.194;16.322;2023-12-14T10:35:10;9.60;99.90
18266;DHT22;9259;48.194;16.322;2023-12-14T10:37:38;9.90;99.90
18266;DHT22;9259;48.194;16.322;2023-12-14T10:40:10;10.10;99.90
18266;DHT22;9259;48.194;16.322;2023-12-14T10:42:39;10.10;99.90
18266;DHT22;9259;48.194;16.322;2023-12-14T10:45:11;10.40;99.90
18266;DHT22;9259;48.194;16.322;2023-12-14T10:47:43;10.30;99.90
18266;DHT22;9259;48.194;16.322;2023-12-14T10:50:12;10.30;99.90
18266;DHT22;9259;48.194;16.322;2023-12-14T10:52:40;10.10;99.90
18266;DHT22;9259;48.194;16.322;2023-12-14T10:55:21;9.90;99.90
18266;DHT22;9259;48.194;16.322;2023-12-14T10:57:51;10.00;99.90
18266;DHT22;9259;48.194;16.322;2023-12-14T11:00:19;10.20;99.90
18266;DHT22;9259;48.194;16.322;2023-12-14T11:02:48;9.90;99.90
18266;DHT22;9259;48.194;16.322;2023-12-14T11:05:16;9.90;99.90
18266;DHT22;9259;48.194;16.322;2023-12-14T11:07:50;9.70;99.90
18266;DHT22;9259;48.194;16.322;2023-12-14T11:10:22;9.40;99.90
18266;DHT22;9259;48.194;16.322;2023-12-14T11:13:00;9.50;99.90
18266;DHT22;9259;48.194;16.322;2023-12-14T11:15:29;9.90;99.90
18266;DHT22;9259;48.194;16.322;2023-12-14T11:18:22;9.90;99.90
18266;DHT22;9259;48.194;16.322;2023-12-14T11:20:53;9.50;99.90
18266;DHT22;9259;48.194;16.322;2023-12-14T11:23:31;9.30;99.90
18266;DHT22;9259;48.194;16.322;2023-12-14T11:26:05;9.20;99.90
18266;DHT22;9259;48.194;16.322;2023-12-14T11:28:35;9.50;99.90
18266;DHT22;9259;48.194;16.322;2023-12-14T11:31:04;9.80;99.90
18266;DHT22;9259;48.194;16.322;2023-12-14T11:33:33;9.90;99.90
18266;DHT22;9259;48.194;16.322;2023-12-14T11:36:02;9.90;99.90
18266;DHT22;9259;48.194;16.322;2023-12-14T11:38:30;9.80;99.90
18266;DHT22;9259;48.194;16.322;2023-12-14T11:40:59;9.80;99.90
18266;DHT22;9259;48.194;16.322;2023-12-14T11:43:28;9.40;99.90
18266;DHT22;9259;48.194;16.322;2023-12-14T11:45:56;9.30;99.90
18266;DHT22;9259;48.194;16.322;2023-12-14T11:48:24;9.20;99.90
18266;DHT22;9259;48.194;16.322;2023-12-14T11:50:52;9.20;99.90
18266;DHT22;9259;48.194;16.322;2023-12-14T11:53:20;9.20;99.90
18266;DHT22;9259;48.194;16.322;2023-12-14T11:55:49;9.20;99.90
18266;DHT22;9259;48.194;16.322;2023-12-14T11:58:17;9.00;99.90
18266;DHT22;9259;48.194;16.322;2023-12-14T12:00:46;8.90;99.90
18266;DHT22;9259;48.194;16.322;2023-12-14T12:03:16;8.90;99.90
18266;DHT22;9259;48.194;16.322;2023-12-14T12:05:47;9.00;99.90
18266;DHT22;9259;48.194;16.322;2023-12-14T12:08:17;9.00;99.90
18266;DHT22;9259;48.194;16.322;2023-12-14T12:10:46;8.80;99.90
18266;DHT22;9259;48.194;16.322;2023-12-14T12:13:16;8.70;99.90
18266;DHT22;9259;48.194;16.322;2023-12-14T12:15:47;9.00;99.90
18266;DHT22;9259;48.194;16.322;2023-12-14T12:18:16;9.30;99.90
18266;DHT22;9259;48.194;16.322;2023-12-14T12:20:44;9.20;99.90
18266;DHT22;9259;48.194;16.322;2023-12-14T12:23:12;9.40;99.90
18266;DHT22;9259;48.194;16.322;2023-12-14T12:25:40;9.40;99.90
18266;DHT22;9259;48.194;16.322;2023-12-14T12:28:08;9.20;99.90
18266;DHT22;9259;48.194;16.322;2023-12-14T12:30:36;9.10;99.90
18266;DHT22;9259;48.194;16.322;2023-12-14T12:33:05;9.10;99.90
18266;DHT22;9259;48.194;16.322;2023-12-14T12:35:33;8.90;99.90
18266;DHT22;9259;48.194;16.322;2023-12-14T12:38:01;8.80;99.90
18266;DHT22;9259;48.194;16.322;2023-12-14T12:40:29;8.80;99.90
18266;DHT22;9259;48.194;16.322;2023-12-14T12:42:59;8.80;99.90
18266;DHT22;9259;48.194;16.322;2023-12-14T12:45:27;8.70;99.90
18266;DHT22;9259;48.194;16.322;2023-12-14T12:47:55;8.60;99.90
18266;DHT22;9259;48.194;16.322;2023-12-14T12:50:24;8.60;99.90
18266;DHT22;9259;48.194;16.322;2023-12-14T12:52:52;8.50;99.90
18266;DHT22;9259;48.194;16.322;2023-12-14T12:55:20;8.40;99.90
18266;DHT22;9259;48.194;16.322;2023-12-14T12:57:48;8.40;99.90
18266;DHT22;9259;48.194;16.322;2023-12-14T13:00:16;8.30;99.90
18266;DHT22;9259;48.194;16.322;2023-12-14T13:02:45;8.30;99.90
18266;DHT22;9259;48.194;16.322;2023-12-14T13:05:13;8.30;99.90
18266;DHT22;9259;48.194;16.322;2023-12-14T13:07:45;8.30;99.90
18266;DHT22;9259;48.194;16.322;2023-12-14T13:10:13;8.30;99.90
18266;DHT22;9259;48.194;16.322;2023-12-14T13:12:41;8.30;99.90
18266;DHT22;9259;48.194;16.322;2023-12-14T13:15:09;8.30;99.90
18266;DHT22;9259;48.194;16.322;2023-12-14T13:17:37;8.30;99.90
18266;DHT22;9259;48.194;16.322;2023-12-14T13:20:06;8.30;99.90
18266;DHT22;9259;48.194;16.322;2023-12-14T13:22:35;8.30;99.90
18266;DHT22;9259;48.194;16.322;2023-12-14T13:25:05;8.20;99.90
18266;DHT22;9259;48.194;16.322;2023-12-14T13:27:33;8.20;99.90
18266;DHT22;9259;48.194;16.322;2023-12-14T13:30:02;8.10;99.90
18266;DHT22;9259;48.194;16.322;2023-12-14T13:32:32;8.20;99.90
18266;DHT22;9259;48.194;16.322;2023-12-14T13:34:59;8.10;99.90
18266;DHT22;9259;48.194;16.322;2023-12-14T13:37:28;8.10;99.90
18266;DHT22;9259;48.194;16.322;2023-12-14T13:39:56;8.10;99.90
18266;DHT22;9259;48.194;16.322;2023-12-14T13:42:25;8.20;99.90
18266;DHT22;9259;48.194;16.322;2023-12-14T13:44:53;8.30;99.90
18266;DHT22;9259;48.194;16.322;2023-12-14T13:47:20;8.30;99.90
18266;DHT22;9259;48.194;16.322;2023-12-14T13:49:49;8.40;99.90
18266;DHT22;9259;48.194;16.322;2023-12-14T13:52:16;8.40;99.90
18266;DHT22;9259;48.194;16.322;2023-12-14T13:54:44;8.40;99.90
18266;DHT22;9259;48.194;16.322;2023-12-14T13:57:12;8.20;99.90
18266;DHT22;9259;48.194;16.322;2023-12-14T13:59:41;7.90;99.90
18266;DHT22;9259;48.194;16.322;2023-12-14T14:02:09;7.90;99.90
18266;DHT22;9259;48.194;16.322;2023-12-14T14:04:37;7.80;99.90
18266;DHT22;9259;48.194;16.322;2023-12-14T14:07:05;7.70;99.90
18266;DHT22;9259;48.194;16.322;2023-12-14T14:09:33;7.70;99.90
18266;DHT22;9259;48.194;16.322;2023-12-14T14:12:01;7.70;99.90
18266;DHT22;9259;48.194;16.322;2023-12-14T14:14:30;7.60;99.90
18266;DHT22;9259;48.194;16.322;2023-12-14T14:16:59;7.60;99.90
18266;DHT22;9259;48.194;16.322;2023-12-14T14:19:28;7.50;99.90
18266;DHT22;9259;48.194;16.322;2023-12-14T14:21:56;7.50;99.90
18266;DHT22;9259;48.194;16.322;2023-12-14T14:24:24;7.60;99.90
18266;DHT22;9259;48.194;16.322;2023-12-14T14:26:52;7.60;99.90
18266;DHT22;9259;48.194;16.322;2023-12-14T14:29:19;7.60;99.90
18266;DHT22;9259;48.194;16.322;2023-12-14T14:31:47;7.60;99.90
18266;DHT22;9259;48.194;16.322;2023-12-14T14:34:16;7.60;99.90
18266;DHT22;9259;48.194;16.322;2023-12-14T14:36:44;7.60;99.90
18266;DHT22;9259;48.194;16.322;2023-12-14T14:39:12;7.60;99.90
18266;DHT22;9259;48.194;16.322;2023-12-14T14:41:40;7.50;99.90
18266;DHT22;9259;48.194;16.322;2023-12-14T14:44:08;7.50;99.90
18266;DHT22;9259;48.194;16.322;2023-12-14T14:46:36;7.40;99.90
18266;DHT22;9259;48.194;16.322;2023-12-14T14:49:04;7.30;99.90
18266;DHT22;9259;48.194;16.322;2023-12-14T14:51:33;7.30;99.90
18266;DHT22;9259;48.194;16.322;2023-12-14T14:54:01;7.30;99.90
18266;DHT22;9259;48.194;16.322;2023-12-14T14:56:29;7.20;99.90
18266;DHT22;9259;48.194;16.322;2023-12-14T14:58:57;7.30;99.90
18266;DHT22;9259;48.194;16.322;2023-12-14T15:01:25;7.30;99.90
18266;DHT22;9259;48.194;16.322;2023-12-14T15:03:53;7.30;99.90
18266;DHT22;9259;48.194;16.322;2023-12-14T15:06:20;7.30;99.90
18266;DHT22;9259;48.194;16.322;2023-12-14T15:08:50;7.20;99.90
18266;DHT22;9259;48.194;16.322;2023-12-14T15:11:18;7.30;99.90
18266;DHT22;9259;48.194;16.322;2023-12-14T15:13:46;7.30;99.90
18266;DHT22;9259;48.194;16.322;2023-12-14T15:16:14;7.30;99.90
18266;DHT22;9259;48.194;16.322;2023-12-14T15:18:42;7.30;99.90
18266;DHT22;9259;48.194;16.322;2023-12-14T15:21:10;7.20;99.90
18266;DHT22;9259;48.194;16.322;2023-12-14T15:23:38;7.20;99.90
18266;DHT22;9259;48.194;16.322;2023-12-14T15:26:07;7.20;99.90
18266;DHT22;9259;48.194;16.322;2023-12-14T15:28:36;7.20;99.90
18266;DHT22;9259;48.194;16.322;2023-12-14T15:31:04;7.20;99.90
18266;DHT22;9259;48.194;16.322;2023-12-14T15:33:32;7.20;99.90
18266;DHT22;9259;48.194;16.322;2023-12-14T15:36:00;7.20;99.90
18266;DHT22;9259;48.194;16.322;2023-12-14T15:38:28;7.20;99.90
18266;DHT22;9259;48.194;16.322;2023-12-14T15:40:56;7.20;99.90
18266;DHT22;9259;48.194;16.322;2023-12-14T15:43:25;7.20;99.90
18266;DHT22;9259;48.194;16.322;2023-12-14T15:45:53;7.20;99.90
18266;DHT22;9259;48.194;16.322;2023-12-14T15:48:21;7.20;99.90
18266;DHT22;9259;48.194;16.322;2023-12-14T15:50:49;7.20;99.90
18266;DHT22;9259;48.194;16.322;2023-12-14T15:53:17;7.20;99.90